sensor_id;sensor_type;location;lat;lon;timestamp;P1;durP1;ratioP1;P2;durP2;ratioP2
47772;SDS011;33534;51.028;13.716;2022-10-28T00:07:19;41.60;;;27.67;;
47772;SDS011;33534;51.028;13.716;2022-10-28T00:10:08;43.00;;;26.98;;
47772;SDS011;33534;51.028;13.716;2022-10-28T00:12:40;45.20;;;28.60;;
47772;SDS011;33534;51.028;13.716;2022-10-28T00:15:50;53.97;;;28.38;;
47772;SDS011;33534;51.028;13.716;2022-10-28T00:18:30;43.25;;;26.63;;
47772;SDS011;33534;51.028;13.716;2022-10-28T00:21:00;36.35;;;25.38;;
47772;SDS011;33534;51.028;13.716;2022-10-28T00:23:29;40.97;;;27.00;;
47772;SDS011;33534;51.028;13.716;2022-10-28T00:25:55;38.33;;;26.77;;
47772;SDS011;33534;51.028;13.716;2022-10-28T00:28:27;36.33;;;24.52;;
47772;SDS011;33534;51.028;13.716;2022-10-28T00:33:56;39.20;;;26.10;;
47772;SDS011;33534;51.028;13.716;2022-10-28T00:36:23;34.47;;;25.25;;
47772;SDS011;33534;51.028;13.716;2022-10-28T00:39:14;37.80;;;23.30;;
47772;SDS011;33534;51.028;13.716;2022-10-28T00:41:55;40.45;;;26.35;;
47772;SDS011;33534;51.028;13.716;2022-10-28T00:47:21;38.75;;;25.27;;
47772;SDS011;33534;51.028;13.716;2022-10-28T00:49:56;42.22;;;27.90;;
47772;SDS011;33534;51.028;13.716;2022-10-28T00:52:51;36.97;;;25.95;;
47772;SDS011;33534;51.028;13.716;2022-10-28T00:58:23;39.33;;;25.50;;
47772;SDS011;33534;51.028;13.716;2022-10-28T01:01:19;34.95;;;24.33;;
47772;SDS011;33534;51.028;13.716;2022-10-28T01:04:09;35.85;;;23.55;;
47772;SDS011;33534;51.028;13.716;2022-10-28T01:09:45;37.20;;;23.30;;
47772;SDS011;33534;51.028;13.716;2022-10-28T01:57:05;33.72;;;23.13;;
47772;SDS011;33534;51.028;13.716;2022-10-28T02:03:26;28.60;;;21.63;;
47772;SDS011;33534;51.028;13.716;2022-10-28T02:21:07;31.85;;;22.48;;
47772;SDS011;33534;51.028;13.716;2022-10-28T02:23:35;33.70;;;23.95;;
47772;SDS011;33534;51.028;13.716;2022-10-28T02:32:16;31.08;;;23.70;;
47772;SDS011;33534;51.028;13.716;2022-10-28T03:00:52;41.70;;;27.65;;
47772;SDS011;33534;51.028;13.716;2022-10-28T03:03:18;42.03;;;29.50;;
47772;SDS011;33534;51.028;13.716;2022-10-28T03:05:44;38.22;;;25.70;;
47772;SDS011;33534;51.028;13.716;2022-10-28T03:08:10;38.45;;;27.80;;
47772;SDS011;33534;51.028;13.716;2022-10-28T03:10:36;41.20;;;27.70;;
47772;SDS011;33534;51.028;13.716;2022-10-28T03:13:02;36.38;;;26.38;;
47772;SDS011;33534;51.028;13.716;2022-10-28T03:15:28;38.17;;;26.35;;
47772;SDS011;33534;51.028;13.716;2022-10-28T03:17:54;41.38;;;28.02;;
47772;SDS011;33534;51.028;13.716;2022-10-28T03:20:20;39.40;;;27.50;;
47772;SDS011;33534;51.028;13.716;2022-10-28T03:22:46;40.03;;;26.35;;
47772;SDS011;33534;51.028;13.716;2022-10-28T03:25:12;40.65;;;27.17;;
47772;SDS011;33534;51.028;13.716;2022-10-28T03:27:38;37.78;;;26.17;;
47772;SDS011;33534;51.028;13.716;2022-10-28T03:30:05;35.85;;;24.90;;
47772;SDS011;33534;51.028;13.716;2022-10-28T03:32:31;37.72;;;26.90;;
47772;SDS011;33534;51.028;13.716;2022-10-28T03:34:57;35.78;;;27.00;;
47772;SDS011;33534;51.028;13.716;2022-10-28T03:37:23;40.47;;;26.75;;
47772;SDS011;33534;51.028;13.716;2022-10-28T03:39:49;39.83;;;26.75;;
47772;SDS011;33534;51.028;13.716;2022-10-28T03:42:15;41.35;;;27.92;;
47772;SDS011;33534;51.028;13.716;2022-10-28T03:44:41;40.40;;;26.88;;
47772;SDS011;33534;51.028;13.716;2022-10-28T03:47:07;42.78;;;28.17;;
47772;SDS011;33534;51.028;13.716;2022-10-28T03:49:33;43.65;;;29.60;;
47772;SDS011;33534;51.028;13.716;2022-10-28T03:51:59;45.45;;;30.77;;
47772;SDS011;33534;51.028;13.716;2022-10-28T03:54:25;50.42;;;30.77;;
47772;SDS011;33534;51.028;13.716;2022-10-28T03:56:51;45.30;;;30.30;;
47772;SDS011;33534;51.028;13.716;2022-10-28T03:59:17;44.45;;;30.92;;
47772;SDS011;33534;51.028;13.716;2022-10-28T04:01:43;46.40;;;29.95;;
47772;SDS011;33534;51.028;13.716;2022-10-28T04:04:09;45.88;;;31.08;;
47772;SDS011;33534;51.028;13.716;2022-10-28T04:06:35;46.80;;;30.67;;
47772;SDS011;33534;51.028;13.716;2022-10-28T04:09:01;45.58;;;29.95;;
47772;SDS011;33534;51.028;13.716;2022-10-28T04:11:27;47.60;;;31.63;;
47772;SDS011;33534;51.028;13.716;2022-10-28T04:13:52;55.47;;;33.85;;
47772;SDS011;33534;51.028;13.716;2022-10-28T04:16:18;52.08;;;34.08;;
47772;SDS011;33534;51.028;13.716;2022-10-28T04:18:44;53.22;;;33.30;;
47772;SDS011;33534;51.028;13.716;2022-10-28T04:21:13;58.35;;;34.72;;
47772;SDS011;33534;51.028;13.716;2022-10-28T04:23:39;57.55;;;34.25;;
47772;SDS011;33534;51.028;13.716;2022-10-28T04:26:05;67.55;;;35.75;;
47772;SDS011;33534;51.028;13.716;2022-10-28T04:28:31;51.30;;;33.03;;
47772;SDS011;33534;51.028;13.716;2022-10-28T04:30:57;58.13;;;36.00;;
47772;SDS011;33534;51.028;13.716;2022-10-28T04:33:23;54.30;;;33.38;;
47772;SDS011;33534;51.028;13.716;2022-10-28T04:35:49;60.17;;;36.10;;
47772;SDS011;33534;51.028;13.716;2022-10-28T04:38:16;59.85;;;37.92;;
47772;SDS011;33534;51.028;13.716;2022-10-28T04:40:42;55.13;;;35.55;;
47772;SDS011;33534;51.028;13.716;2022-10-28T04:43:08;58.42;;;33.83;;
47772;SDS011;33534;51.028;13.716;2022-10-28T04:45:35;57.90;;;33.60;;
47772;SDS011;33534;51.028;13.716;2022-10-28T04:48:02;65.45;;;36.47;;
47772;SDS011;33534;51.028;13.716;2022-10-28T04:50:28;59.78;;;36.28;;
47772;SDS011;33534;51.028;13.716;2022-10-28T04:52:54;64.35;;;37.42;;
47772;SDS011;33534;51.028;13.716;2022-10-28T04:55:20;70.25;;;37.95;;
47772;SDS011;33534;51.028;13.716;2022-10-28T04:57:56;69.53;;;38.35;;
47772;SDS011;33534;51.028;13.716;2022-10-28T05:00:22;62.60;;;37.75;;
47772;SDS011;33534;51.028;13.716;2022-10-28T05:02:48;65.63;;;36.88;;
47772;SDS011;33534;51.028;13.716;2022-10-28T05:05:15;64.35;;;37.50;;
47772;SDS011;33534;51.028;13.716;2022-10-28T05:07:41;65.68;;;37.67;;
47772;SDS011;33534;51.028;13.716;2022-10-28T05:10:07;64.45;;;35.30;;
47772;SDS011;33534;51.028;13.716;2022-10-28T05:12:33;57.30;;;35.10;;
47772;SDS011;33534;51.028;13.716;2022-10-28T05:14:59;57.95;;;34.10;;
47772;SDS011;33534;51.028;13.716;2022-10-28T05:17:25;62.80;;;36.80;;
47772;SDS011;33534;51.028;13.716;2022-10-28T05:19:51;55.70;;;33.38;;
47772;SDS011;33534;51.028;13.716;2022-10-28T05:22:17;58.72;;;35.10;;
47772;SDS011;33534;51.028;13.716;2022-10-28T05:24:43;58.35;;;34.65;;
47772;SDS011;33534;51.028;13.716;2022-10-28T05:27:09;56.17;;;34.35;;
47772;SDS011;33534;51.028;13.716;2022-10-28T05:29:36;56.20;;;35.50;;
47772;SDS011;33534;51.028;13.716;2022-10-28T05:32:02;59.28;;;35.13;;
47772;SDS011;33534;51.028;13.716;2022-10-28T05:34:28;63.72;;;35.38;;
47772;SDS011;33534;51.028;13.716;2022-10-28T05:36:54;56.70;;;35.10;;
47772;SDS011;33534;51.028;13.716;2022-10-28T05:39:20;62.58;;;36.85;;
47772;SDS011;33534;51.028;13.716;2022-10-28T05:41:46;63.63;;;37.58;;
47772;SDS011;33534;51.028;13.716;2022-10-28T05:44:12;68.85;;;37.53;;
47772;SDS011;33534;51.028;13.716;2022-10-28T05:46:38;64.05;;;37.38;;
47772;SDS011;33534;51.028;13.716;2022-10-28T05:49:04;63.88;;;37.65;;
47772;SDS011;33534;51.028;13.716;2022-10-28T05:51:30;65.28;;;36.45;;
47772;SDS011;33534;51.028;13.716;2022-10-28T05:53:56;58.83;;;35.97;;
47772;SDS011;33534;51.028;13.716;2022-10-28T05:56:22;58.97;;;33.75;;
47772;SDS011;33534;51.028;13.716;2022-10-28T05:58:48;57.70;;;34.92;;
47772;SDS011;33534;51.028;13.716;2022-10-28T06:01:14;52.80;;;33.83;;
47772;SDS011;33534;51.028;13.716;2022-10-28T06:03:40;60.15;;;33.25;;
47772;SDS011;33534;51.028;13.716;2022-10-28T06:06:06;57.58;;;34.30;;
47772;SDS011;33534;51.028;13.716;2022-10-28T06:08:32;51.72;;;33.08;;
47772;SDS011;33534;51.028;13.716;2022-10-28T06:10:58;53.13;;;32.30;;
47772;SDS011;33534;51.028;13.716;2022-10-28T06:13:25;51.90;;;32.00;;
47772;SDS011;33534;51.028;13.716;2022-10-28T06:15:54;51.03;;;31.95;;
47772;SDS011;33534;51.028;13.716;2022-10-28T06:18:20;47.72;;;31.60;;
47772;SDS011;33534;51.028;13.716;2022-10-28T06:20:53;47.83;;;30.40;;
47772;SDS011;33534;51.028;13.716;2022-10-28T06:23:19;48.38;;;30.80;;
47772;SDS011;33534;51.028;13.716;2022-10-28T06:25:45;52.05;;;30.15;;
47772;SDS011;33534;51.028;13.716;2022-10-28T06:28:12;48.67;;;31.08;;
47772;SDS011;33534;51.028;13.716;2022-10-28T06:30:45;48.42;;;29.63;;
47772;SDS011;33534;51.028;13.716;2022-10-28T06:33:11;44.42;;;28.83;;
47772;SDS011;33534;51.028;13.716;2022-10-28T06:35:37;46.28;;;27.77;;
47772;SDS011;33534;51.028;13.716;2022-10-28T06:38:03;42.28;;;27.77;;
47772;SDS011;33534;51.028;13.716;2022-10-28T06:40:32;38.22;;;26.80;;
47772;SDS011;33534;51.028;13.716;2022-10-28T06:42:59;39.92;;;25.50;;
47772;SDS011;33534;51.028;13.716;2022-10-28T06:45:28;38.95;;;25.00;;
47772;SDS011;33534;51.028;13.716;2022-10-28T06:47:58;35.22;;;25.02;;
47772;SDS011;33534;51.028;13.716;2022-10-28T06:50:25;40.58;;;23.25;;
47772;SDS011;33534;51.028;13.716;2022-10-28T06:52:51;36.65;;;24.10;;
47772;SDS011;33534;51.028;13.716;2022-10-28T06:55:19;34.75;;;23.92;;
47772;SDS011;33534;51.028;13.716;2022-10-28T06:57:45;38.85;;;23.60;;
47772;SDS011;33534;51.028;13.716;2022-10-28T07:00:11;37.78;;;22.92;;
47772;SDS011;33534;51.028;13.716;2022-10-28T07:02:37;33.92;;;21.85;;
47772;SDS011;33534;51.028;13.716;2022-10-28T07:05:03;34.25;;;22.08;;
47772;SDS011;33534;51.028;13.716;2022-10-28T07:07:30;27.67;;;20.65;;
47772;SDS011;33534;51.028;13.716;2022-10-28T07:10:01;31.83;;;20.10;;
47772;SDS011;33534;51.028;13.716;2022-10-28T07:12:27;27.05;;;19.00;;
47772;SDS011;33534;51.028;13.716;2022-10-28T07:14:53;27.90;;;19.08;;
47772;SDS011;33534;51.028;13.716;2022-10-28T07:17:19;25.23;;;17.15;;
47772;SDS011;33534;51.028;13.716;2022-10-28T07:19:46;25.85;;;17.52;;
47772;SDS011;33534;51.028;13.716;2022-10-28T07:22:12;23.77;;;16.42;;
47772;SDS011;33534;51.028;13.716;2022-10-28T07:24:38;25.08;;;16.85;;
47772;SDS011;33534;51.028;13.716;2022-10-28T07:27:06;23.25;;;16.95;;
47772;SDS011;33534;51.028;13.716;2022-10-28T07:29:32;22.33;;;16.52;;
47772;SDS011;33534;51.028;13.716;2022-10-28T07:31:59;24.30;;;17.58;;
47772;SDS011;33534;51.028;13.716;2022-10-28T07:34:25;25.30;;;16.60;;
47772;SDS011;33534;51.028;13.716;2022-10-28T07:36:52;23.35;;;16.52;;
47772;SDS011;33534;51.028;13.716;2022-10-28T07:39:18;26.52;;;16.75;;
47772;SDS011;33534;51.028;13.716;2022-10-28T07:41:44;23.98;;;16.95;;
47772;SDS011;33534;51.028;13.716;2022-10-28T07:44:10;29.27;;;17.15;;
47772;SDS011;33534;51.028;13.716;2022-10-28T07:46:36;26.25;;;17.23;;
47772;SDS011;33534;51.028;13.716;2022-10-28T07:49:02;21.40;;;15.18;;
47772;SDS011;33534;51.028;13.716;2022-10-28T07:51:28;42.95;;;17.35;;
47772;SDS011;33534;51.028;13.716;2022-10-28T07:53:55;31.48;;;16.38;;
47772;SDS011;33534;51.028;13.716;2022-10-28T07:56:23;21.92;;;16.27;;
47772;SDS011;33534;51.028;13.716;2022-10-28T07:58:49;25.33;;;15.70;;
47772;SDS011;33534;51.028;13.716;2022-10-28T08:01:16;23.33;;;15.48;;
47772;SDS011;33534;51.028;13.716;2022-10-28T08:03:43;23.95;;;15.43;;
47772;SDS011;33534;51.028;13.716;2022-10-28T08:06:14;23.98;;;14.07;;
47772;SDS011;33534;51.028;13.716;2022-10-28T08:08:41;21.90;;;14.90;;
47772;SDS011;33534;51.028;13.716;2022-10-28T08:11:08;17.83;;;13.15;;
47772;SDS011;33534;51.028;13.716;2022-10-28T08:13:34;20.73;;;13.57;;
47772;SDS011;33534;51.028;13.716;2022-10-28T08:16:00;20.83;;;14.13;;
47772;SDS011;33534;51.028;13.716;2022-10-28T08:18:26;21.45;;;13.65;;
47772;SDS011;33534;51.028;13.716;2022-10-28T08:20:52;21.70;;;13.77;;
47772;SDS011;33534;51.028;13.716;2022-10-28T08:23:18;21.63;;;13.40;;
47772;SDS011;33534;51.028;13.716;2022-10-28T08:25:48;17.73;;;12.60;;
47772;SDS011;33534;51.028;13.716;2022-10-28T08:28:14;22.00;;;12.43;;
47772;SDS011;33534;51.028;13.716;2022-10-28T08:30:40;19.52;;;12.60;;
47772;SDS011;33534;51.028;13.716;2022-10-28T08:33:06;20.90;;;12.73;;
47772;SDS011;33534;51.028;13.716;2022-10-28T08:35:32;21.38;;;13.32;;
47772;SDS011;33534;51.028;13.716;2022-10-28T08:37:59;16.90;;;12.05;;
47772;SDS011;33534;51.028;13.716;2022-10-28T08:43:26;17.88;;;12.07;;
47772;SDS011;33534;51.028;13.716;2022-10-28T08:46:44;23.35;;;12.68;;
47772;SDS011;33534;51.028;13.716;2022-10-28T08:48:40;19.52;;;11.82;;
47772;SDS011;33534;51.028;13.716;2022-10-28T08:51:16;18.45;;;11.82;;
47772;SDS011;33534;51.028;13.716;2022-10-28T08:53:44;16.38;;;11.55;;
47772;SDS011;33534;51.028;13.716;2022-10-28T08:56:14;18.38;;;12.38;;
47772;SDS011;33534;51.028;13.716;2022-10-28T08:58:41;16.73;;;11.52;;
47772;SDS011;33534;51.028;13.716;2022-10-28T09:07:19;15.68;;;11.13;;
47772;SDS011;33534;51.028;13.716;2022-10-28T09:15:59;18.25;;;11.07;;
47772;SDS011;33534;51.028;13.716;2022-10-28T09:23:51;17.80;;;10.82;;
47772;SDS011;33534;51.028;13.716;2022-10-28T09:29:07;16.17;;;10.80;;
47772;SDS011;33534;51.028;13.716;2022-10-28T09:32:07;12.88;;;10.80;;
47772;SDS011;33534;51.028;13.716;2022-10-28T09:34:35;16.17;;;10.52;;
47772;SDS011;33534;51.028;13.716;2022-10-28T09:40:02;14.07;;;9.82;;
47772;SDS011;33534;51.028;13.716;2022-10-28T09:49:26;17.67;;;9.95;;
47772;SDS011;33534;51.028;13.716;2022-10-28T09:54:39;12.40;;;9.18;;
47772;SDS011;33534;51.028;13.716;2022-10-28T09:57:21;14.05;;;10.05;;
47772;SDS011;33534;51.028;13.716;2022-10-28T10:00:26;17.05;;;9.98;;
47772;SDS011;33534;51.028;13.716;2022-10-28T10:02:55;16.73;;;9.77;;
47772;SDS011;33534;51.028;13.716;2022-10-28T10:05:33;10.97;;;8.87;;
47772;SDS011;33534;51.028;13.716;2022-10-28T10:11:06;14.13;;;9.40;;
47772;SDS011;33534;51.028;13.716;2022-10-28T10:13:40;15.18;;;9.57;;
47772;SDS011;33534;51.028;13.716;2022-10-28T10:28:57;10.43;;;8.70;;
47772;SDS011;33534;51.028;13.716;2022-10-28T10:43:47;12.30;;;8.75;;
47772;SDS011;33534;51.028;13.716;2022-10-28T11:21:06;17.40;;;9.20;;
47772;SDS011;33534;51.028;13.716;2022-10-28T11:26:02;12.00;;;8.82;;
47772;SDS011;33534;51.028;13.716;2022-10-28T11:44:25;14.70;;;9.57;;
47772;SDS011;33534;51.028;13.716;2022-10-28T11:47:09;12.73;;;9.02;;
47772;SDS011;33534;51.028;13.716;2022-10-28T11:52:55;12.40;;;9.52;;
47772;SDS011;33534;51.028;13.716;2022-10-28T11:55:41;14.10;;;8.88;;
47772;SDS011;33534;51.028;13.716;2022-10-28T11:58:40;13.75;;;9.57;;
47772;SDS011;33534;51.028;13.716;2022-10-28T12:07:41;15.65;;;9.75;;
47772;SDS011;33534;51.028;13.716;2022-10-28T12:23:35;15.02;;;10.32;;
47772;SDS011;33534;51.028;13.716;2022-10-28T12:26:20;18.55;;;10.25;;
47772;SDS011;33534;51.028;13.716;2022-10-28T12:41:43;19.92;;;12.15;;
47772;SDS011;33534;51.028;13.716;2022-10-28T12:44:12;15.90;;;10.40;;
47772;SDS011;33534;51.028;13.716;2022-10-28T12:55:55;13.50;;;9.95;;
47772;SDS011;33534;51.028;13.716;2022-10-28T12:58:56;15.88;;;10.85;;
47772;SDS011;33534;51.028;13.716;2022-10-28T13:05:22;18.00;;;11.77;;
47772;SDS011;33534;51.028;13.716;2022-10-28T13:11:41;15.10;;;11.48;;
47772;SDS011;33534;51.028;13.716;2022-10-28T13:31:21;14.23;;;10.15;;
47772;SDS011;33534;51.028;13.716;2022-10-28T13:33:53;16.67;;;11.13;;
47772;SDS011;33534;51.028;13.716;2022-10-28T13:36:34;18.20;;;10.80;;
47772;SDS011;33534;51.028;13.716;2022-10-28T13:39:25;25.30;;;11.00;;
47772;SDS011;33534;51.028;13.716;2022-10-28T13:44:51;15.57;;;10.82;;
47772;SDS011;33534;51.028;13.716;2022-10-28T13:47:33;16.45;;;10.93;;
47772;SDS011;33534;51.028;13.716;2022-10-28T13:50:20;18.88;;;11.40;;
47772;SDS011;33534;51.028;13.716;2022-10-28T13:58:21;17.77;;;10.88;;
47772;SDS011;33534;51.028;13.716;2022-10-28T14:00:54;17.77;;;10.77;;
47772;SDS011;33534;51.028;13.716;2022-10-28T18:34:50;27.35;;;18.05;;
47772;SDS011;33534;51.028;13.716;2022-10-28T18:40:30;29.58;;;17.42;;
47772;SDS011;33534;51.028;13.716;2022-10-28T18:43:17;27.15;;;17.48;;
47772;SDS011;33534;51.028;13.716;2022-10-28T18:55:46;31.20;;;19.23;;
47772;SDS011;33534;51.028;13.716;2022-10-28T19:01:45;27.90;;;17.83;;
47772;SDS011;33534;51.028;13.716;2022-10-28T19:55:27;24.38;;;16.02;;
47772;SDS011;33534;51.028;13.716;2022-10-28T19:58:24;21.60;;;15.27;;
47772;SDS011;33534;51.028;13.716;2022-10-28T20:01:09;27.27;;;15.90;;
47772;SDS011;33534;51.028;13.716;2022-10-28T20:07:14;23.33;;;15.10;;
47772;SDS011;33534;51.028;13.716;2022-10-28T20:13:11;30.73;;;17.02;;
47772;SDS011;33534;51.028;13.716;2022-10-28T20:16:26;23.35;;;15.52;;
47772;SDS011;33534;51.028;13.716;2022-10-28T20:25:37;25.80;;;16.20;;
47772;SDS011;33534;51.028;13.716;2022-10-28T20:31:57;22.70;;;15.23;;
47772;SDS011;33534;51.028;13.716;2022-10-28T20:34:28;23.00;;;15.98;;
47772;SDS011;33534;51.028;13.716;2022-10-28T20:43:25;26.30;;;17.02;;
47772;SDS011;33534;51.028;13.716;2022-10-28T20:48:44;29.25;;;18.55;;
47772;SDS011;33534;51.028;13.716;2022-10-28T20:51:28;28.08;;;17.98;;
47772;SDS011;33534;51.028;13.716;2022-10-28T20:54:00;27.30;;;17.23;;
47772;SDS011;33534;51.028;13.716;2022-10-28T20:59:49;25.85;;;17.00;;
47772;SDS011;33534;51.028;13.716;2022-10-28T21:05:47;24.20;;;17.07;;
47772;SDS011;33534;51.028;13.716;2022-10-28T21:08:40;25.95;;;17.15;;
47772;SDS011;33534;51.028;13.716;2022-10-28T21:21:25;26.27;;;16.95;;
47772;SDS011;33534;51.028;13.716;2022-10-28T21:24:02;23.38;;;16.05;;
47772;SDS011;33534;51.028;13.716;2022-10-28T21:26:28;24.63;;;17.08;;
47772;SDS011;33534;51.028;13.716;2022-10-28T21:28:54;25.55;;;16.75;;
47772;SDS011;33534;51.028;13.716;2022-10-28T21:34:43;32.33;;;18.15;;
47772;SDS011;33534;51.028;13.716;2022-10-28T21:37:15;25.45;;;18.58;;
47772;SDS011;33534;51.028;13.716;2022-10-28T21:45:56;27.27;;;16.80;;
47772;SDS011;33534;51.028;13.716;2022-10-28T21:48:29;26.65;;;18.40;;
47772;SDS011;33534;51.028;13.716;2022-10-28T21:51:06;25.63;;;17.98;;
47772;SDS011;33534;51.028;13.716;2022-10-28T21:53:45;27.27;;;18.67;;
47772;SDS011;33534;51.028;13.716;2022-10-28T21:56:14;30.10;;;18.35;;
47772;SDS011;33534;51.028;13.716;2022-10-28T21:58:51;29.73;;;17.88;;
47772;SDS011;33534;51.028;13.716;2022-10-28T22:01:58;30.58;;;17.75;;
47772;SDS011;33534;51.028;13.716;2022-10-28T22:26:03;29.80;;;19.85;;
47772;SDS011;33534;51.028;13.716;2022-10-28T22:28:38;37.28;;;24.30;;
47772;SDS011;33534;51.028;13.716;2022-10-28T22:31:31;34.03;;;19.63;;
47772;SDS011;33534;51.028;13.716;2022-10-28T22:34:10;39.90;;;20.23;;
47772;SDS011;33534;51.028;13.716;2022-10-28T22:36:55;30.48;;;18.27;;
47772;SDS011;33534;51.028;13.716;2022-10-28T22:39:21;35.13;;;19.77;;
47772;SDS011;33534;51.028;13.716;2022-10-28T22:41:54;28.73;;;19.00;;
47772;SDS011;33534;51.028;13.716;2022-10-28T22:44:20;27.70;;;19.60;;
47772;SDS011;33534;51.028;13.716;2022-10-28T22:46:46;29.02;;;19.73;;
47772;SDS011;33534;51.028;13.716;2022-10-28T22:49:19;29.65;;;20.20;;
47772;SDS011;33534;51.028;13.716;2022-10-28T22:52:12;32.40;;;19.17;;
47772;SDS011;33534;51.028;13.716;2022-10-28T22:54:40;31.10;;;20.85;;
47772;SDS011;33534;51.028;13.716;2022-10-28T22:57:24;27.17;;;19.10;;
47772;SDS011;33534;51.028;13.716;2022-10-28T22:59:58;28.95;;;20.42;;
47772;SDS011;33534;51.028;13.716;2022-10-28T23:02:27;31.80;;;20.42;;
47772;SDS011;33534;51.028;13.716;2022-10-28T23:04:55;32.00;;;20.80;;
47772;SDS011;33534;51.028;13.716;2022-10-28T23:07:21;29.08;;;19.65;;
47772;SDS011;33534;51.028;13.716;2022-10-28T23:09:47;32.40;;;19.88;;
47772;SDS011;33534;51.028;13.716;2022-10-28T23:12:22;30.77;;;19.92;;
47772;SDS011;33534;51.028;13.716;2022-10-28T23:14:48;28.38;;;19.67;;
47772;SDS011;33534;51.028;13.716;2022-10-28T23:17:14;35.65;;;21.25;;
47772;SDS011;33534;51.028;13.716;2022-10-28T23:19:40;35.30;;;20.88;;
47772;SDS011;33534;51.028;13.716;2022-10-28T23:22:06;32.38;;;21.08;;
47772;SDS011;33534;51.028;13.716;2022-10-28T23:24:32;36.45;;;20.13;;
47772;SDS011;33534;51.028;13.716;2022-10-28T23:26:58;32.33;;;21.20;;
47772;SDS011;33534;51.028;13.716;2022-10-28T23:29:24;39.03;;;20.42;;
47772;SDS011;33534;51.028;13.716;2022-10-28T23:31:50;31.30;;;19.55;;
47772;SDS011;33534;51.028;13.716;2022-10-28T23:34:16;29.67;;;19.48;;
47772;SDS011;33534;51.028;13.716;2022-10-28T23:36:42;29.60;;;20.80;;
47772;SDS011;33534;51.028;13.716;2022-10-28T23:39:08;29.48;;;18.77;;
47772;SDS011;33534;51.028;13.716;2022-10-28T23:41:34;30.73;;;18.83;;
47772;SDS011;33534;51.028;13.716;2022-10-28T23:44:00;28.10;;;17.45;;
47772;SDS011;33534;51.028;13.716;2022-10-28T23:46:26;31.35;;;18.30;;
47772;SDS011;33534;51.028;13.716;2022-10-28T23:48:52;28.08;;;18.40;;
47772;SDS011;33534;51.028;13.716;2022-10-28T23:51:18;25.92;;;16.75;;
47772;SDS011;33534;51.028;13.716;2022-10-28T23:53:44;28.02;;;17.83;;
47772;SDS011;33534;51.028;13.716;2022-10-28T23:56:10;30.77;;;18.63;;
47772;SDS011;33534;51.028;13.716;2022-10-28T23:58:36;29.65;;;18.20;;
